Terminal Aerodrome Forecast
Issued by NWS New Orleans/Baton Rouge, LA

Home | Current Version | Previous Version | Text Only | Print | Product List | Glossary On
Versions: 1 2 3 4 5 6 7 8 9 10 11 12 13 14 15 16 17
000
FTUS44 KLIX 262323
TAFBTR
TAF
KBTR 262323Z 2700/2724 18015KT P6SM BKN030
     FM270200 21011KT P6SM BKN030
      TEMPO 2702/2705 VRB35KT 3SM TSRA BKN018CB
     FM270900 30006KT P6SM BKN050
     FM271200 32004KT P6SM SCT040
     FM271500 36005KT P6SM FEW150
     FM272100 16004KT P6SM SKC=

USA.gov is the U.S. government's official web portal to all federal, state and local government web resources and services.